sensor_id;sensor_type;location;lat;lon;timestamp;P1;durP1;ratioP1;P2;durP2;ratioP2
21591;SDS011;10958;50.892;3.992;2023-07-02T00:00:05;37.55;;;16.17;;
21591;SDS011;10958;50.892;3.992;2023-07-02T00:02:34;34.40;;;15.60;;
21591;SDS011;10958;50.892;3.992;2023-07-02T00:05:01;33.55;;;15.30;;
21591;SDS011;10958;50.892;3.992;2023-07-02T00:07:28;36.72;;;15.85;;
21591;SDS011;10958;50.892;3.992;2023-07-02T00:09:56;31.40;;;16.43;;
21591;SDS011;10958;50.892;3.992;2023-07-02T00:12:22;30.23;;;15.63;;
21591;SDS011;10958;50.892;3.992;2023-07-02T00:14:48;36.42;;;16.48;;
21591;SDS011;10958;50.892;3.992;2023-07-02T00:17:13;37.45;;;16.23;;
21591;SDS011;10958;50.892;3.992;2023-07-02T00:19:39;32.58;;;16.20;;
21591;SDS011;10958;50.892;3.992;2023-07-02T00:22:08;34.60;;;16.70;;
21591;SDS011;10958;50.892;3.992;2023-07-02T00:24:34;36.92;;;17.42;;
21591;SDS011;10958;50.892;3.992;2023-07-02T00:27:03;34.83;;;16.80;;
21591;SDS011;10958;50.892;3.992;2023-07-02T00:29:29;31.17;;;16.40;;
21591;SDS011;10958;50.892;3.992;2023-07-02T00:31:54;31.13;;;15.80;;
21591;SDS011;10958;50.892;3.992;2023-07-02T00:34:22;36.17;;;16.27;;
21591;SDS011;10958;50.892;3.992;2023-07-02T00:36:48;37.72;;;17.30;;
21591;SDS011;10958;50.892;3.992;2023-07-02T00:39:16;34.67;;;17.20;;
21591;SDS011;10958;50.892;3.992;2023-07-02T00:41:43;37.58;;;17.17;;
21591;SDS011;10958;50.892;3.992;2023-07-02T00:44:11;37.25;;;16.38;;
21591;SDS011;10958;50.892;3.992;2023-07-02T00:46:37;37.42;;;17.58;;
21591;SDS011;10958;50.892;3.992;2023-07-02T00:49:05;36.97;;;18.02;;
21591;SDS011;10958;50.892;3.992;2023-07-02T00:51:32;33.42;;;17.48;;
21591;SDS011;10958;50.892;3.992;2023-07-02T00:53:58;35.25;;;16.75;;
21591;SDS011;10958;50.892;3.992;2023-07-02T00:56:25;34.80;;;16.35;;
21591;SDS011;10958;50.892;3.992;2023-07-02T00:58:52;41.60;;;18.00;;
21591;SDS011;10958;50.892;3.992;2023-07-02T01:01:24;35.85;;;17.58;;
21591;SDS011;10958;50.892;3.992;2023-07-02T01:03:59;37.58;;;17.25;;
21591;SDS011;10958;50.892;3.992;2023-07-02T01:06:27;38.92;;;17.75;;
21591;SDS011;10958;50.892;3.992;2023-07-02T01:08:55;39.95;;;17.85;;
21591;SDS011;10958;50.892;3.992;2023-07-02T01:11:33;32.90;;;17.13;;
21591;SDS011;10958;50.892;3.992;2023-07-02T01:16:43;43.67;;;17.73;;
21591;SDS011;10958;50.892;3.992;2023-07-02T01:20:01;39.95;;;18.10;;
21591;SDS011;10958;50.892;3.992;2023-07-02T01:22:08;37.33;;;18.30;;
21591;SDS011;10958;50.892;3.992;2023-07-02T01:24:35;35.78;;;17.77;;
21591;SDS011;10958;50.892;3.992;2023-07-02T01:27:02;38.63;;;18.38;;
21591;SDS011;10958;50.892;3.992;2023-07-02T01:29:31;35.00;;;18.02;;
21591;SDS011;10958;50.892;3.992;2023-07-02T01:31:56;44.17;;;18.33;;
21591;SDS011;10958;50.892;3.992;2023-07-02T01:34:27;38.03;;;18.40;;
21591;SDS011;10958;50.892;3.992;2023-07-02T01:36:53;39.85;;;18.85;;
21591;SDS011;10958;50.892;3.992;2023-07-02T01:39:19;39.33;;;18.48;;
21591;SDS011;10958;50.892;3.992;2023-07-02T01:41:54;39.60;;;19.77;;
21591;SDS011;10958;50.892;3.992;2023-07-02T01:44:21;38.72;;;18.33;;
21591;SDS011;10958;50.892;3.992;2023-07-02T01:46:48;43.30;;;20.20;;
21591;SDS011;10958;50.892;3.992;2023-07-02T01:49:20;46.67;;;20.00;;
21591;SDS011;10958;50.892;3.992;2023-07-02T01:51:48;42.10;;;19.83;;
21591;SDS011;10958;50.892;3.992;2023-07-02T01:54:15;37.72;;;18.60;;
21591;SDS011;10958;50.892;3.992;2023-07-02T01:56:42;46.38;;;20.67;;
21591;SDS011;10958;50.892;3.992;2023-07-02T01:59:07;45.25;;;20.10;;
21591;SDS011;10958;50.892;3.992;2023-07-02T02:01:34;40.88;;;19.67;;
21591;SDS011;10958;50.892;3.992;2023-07-02T02:03:59;39.80;;;19.10;;
21591;SDS011;10958;50.892;3.992;2023-07-02T02:06:25;44.92;;;20.05;;
21591;SDS011;10958;50.892;3.992;2023-07-02T02:08:53;44.17;;;18.70;;
21591;SDS011;10958;50.892;3.992;2023-07-02T02:11:19;47.45;;;20.50;;
21591;SDS011;10958;50.892;3.992;2023-07-02T02:13:45;42.42;;;19.92;;
21591;SDS011;10958;50.892;3.992;2023-07-02T02:16:11;49.03;;;20.75;;
21591;SDS011;10958;50.892;3.992;2023-07-02T02:18:37;43.88;;;21.85;;
21591;SDS011;10958;50.892;3.992;2023-07-02T02:21:03;48.92;;;20.65;;
21591;SDS011;10958;50.892;3.992;2023-07-02T02:23:33;44.08;;;19.92;;
21591;SDS011;10958;50.892;3.992;2023-07-02T02:26:01;45.25;;;21.15;;
21591;SDS011;10958;50.892;3.992;2023-07-02T02:28:27;44.30;;;20.57;;
21591;SDS011;10958;50.892;3.992;2023-07-02T02:30:56;44.20;;;19.48;;
21591;SDS011;10958;50.892;3.992;2023-07-02T02:33:24;44.28;;;20.60;;
21591;SDS011;10958;50.892;3.992;2023-07-02T02:35:50;47.85;;;20.67;;
21591;SDS011;10958;50.892;3.992;2023-07-02T02:38:17;53.67;;;21.00;;
21591;SDS011;10958;50.892;3.992;2023-07-02T02:40:43;43.13;;;19.42;;
21591;SDS011;10958;50.892;3.992;2023-07-02T02:43:09;45.42;;;20.35;;
21591;SDS011;10958;50.892;3.992;2023-07-02T02:45:34;43.85;;;20.27;;
21591;SDS011;10958;50.892;3.992;2023-07-02T02:48:00;43.28;;;19.90;;
21591;SDS011;10958;50.892;3.992;2023-07-02T02:50:26;41.85;;;19.52;;
21591;SDS011;10958;50.892;3.992;2023-07-02T02:52:52;52.45;;;21.88;;
21591;SDS011;10958;50.892;3.992;2023-07-02T02:55:18;42.45;;;20.35;;
21591;SDS011;10958;50.892;3.992;2023-07-02T02:57:44;44.25;;;19.92;;
21591;SDS011;10958;50.892;3.992;2023-07-02T03:00:11;43.03;;;20.58;;
21591;SDS011;10958;50.892;3.992;2023-07-02T03:02:37;46.90;;;21.52;;
21591;SDS011;10958;50.892;3.992;2023-07-02T03:05:03;46.15;;;20.25;;
21591;SDS011;10958;50.892;3.992;2023-07-02T03:07:32;43.88;;;20.30;;
21591;SDS011;10958;50.892;3.992;2023-07-02T03:09:58;44.75;;;21.63;;
21591;SDS011;10958;50.892;3.992;2023-07-02T03:12:27;45.20;;;21.40;;
21591;SDS011;10958;50.892;3.992;2023-07-02T03:14:55;47.00;;;21.02;;
21591;SDS011;10958;50.892;3.992;2023-07-02T03:17:21;46.03;;;20.00;;
21591;SDS011;10958;50.892;3.992;2023-07-02T03:19:47;52.45;;;22.70;;
21591;SDS011;10958;50.892;3.992;2023-07-02T03:22:13;46.78;;;20.60;;
21591;SDS011;10958;50.892;3.992;2023-07-02T03:24:39;54.03;;;22.55;;
21591;SDS011;10958;50.892;3.992;2023-07-02T03:27:05;43.17;;;21.08;;
21591;SDS011;10958;50.892;3.992;2023-07-02T03:29:34;49.80;;;21.05;;
21591;SDS011;10958;50.892;3.992;2023-07-02T03:32:00;52.45;;;21.95;;
21591;SDS011;10958;50.892;3.992;2023-07-02T03:34:27;49.08;;;20.60;;
21591;SDS011;10958;50.892;3.992;2023-07-02T03:36:53;49.30;;;21.67;;
21591;SDS011;10958;50.892;3.992;2023-07-02T03:39:18;51.00;;;22.17;;
21591;SDS011;10958;50.892;3.992;2023-07-02T03:41:44;47.28;;;21.42;;
21591;SDS011;10958;50.892;3.992;2023-07-02T03:44:10;48.38;;;21.13;;
21591;SDS011;10958;50.892;3.992;2023-07-02T03:46:36;46.08;;;20.50;;
21591;SDS011;10958;50.892;3.992;2023-07-02T03:49:04;50.60;;;21.33;;
21591;SDS011;10958;50.892;3.992;2023-07-02T03:51:31;46.65;;;21.08;;
21591;SDS011;10958;50.892;3.992;2023-07-02T03:54:00;55.75;;;22.52;;
21591;SDS011;10958;50.892;3.992;2023-07-02T03:56:26;45.47;;;19.77;;
21591;SDS011;10958;50.892;3.992;2023-07-02T03:58:52;44.25;;;20.40;;
21591;SDS011;10958;50.892;3.992;2023-07-02T04:01:18;44.45;;;20.58;;
21591;SDS011;10958;50.892;3.992;2023-07-02T04:03:50;43.25;;;20.98;;
21591;SDS011;10958;50.892;3.992;2023-07-02T04:06:17;41.58;;;20.63;;
21591;SDS011;10958;50.892;3.992;2023-07-02T04:08:43;47.75;;;20.83;;
21591;SDS011;10958;50.892;3.992;2023-07-02T04:11:10;48.97;;;20.73;;
21591;SDS011;10958;50.892;3.992;2023-07-02T04:13:40;44.75;;;20.70;;
21591;SDS011;10958;50.892;3.992;2023-07-02T04:16:06;49.95;;;21.58;;
21591;SDS011;10958;50.892;3.992;2023-07-02T04:18:32;45.70;;;20.63;;
21591;SDS011;10958;50.892;3.992;2023-07-02T04:20:57;43.92;;;20.10;;
21591;SDS011;10958;50.892;3.992;2023-07-02T04:23:24;46.40;;;21.17;;
21591;SDS011;10958;50.892;3.992;2023-07-02T04:25:52;45.33;;;21.65;;
21591;SDS011;10958;50.892;3.992;2023-07-02T04:28:18;51.80;;;22.30;;
21591;SDS011;10958;50.892;3.992;2023-07-02T04:30:44;44.30;;;20.80;;
21591;SDS011;10958;50.892;3.992;2023-07-02T04:33:10;49.15;;;21.08;;
21591;SDS011;10958;50.892;3.992;2023-07-02T04:35:38;46.33;;;20.92;;
21591;SDS011;10958;50.892;3.992;2023-07-02T04:38:04;47.83;;;21.55;;
21591;SDS011;10958;50.892;3.992;2023-07-02T04:40:33;51.70;;;20.83;;
21591;SDS011;10958;50.892;3.992;2023-07-02T04:42:59;45.28;;;21.70;;
21591;SDS011;10958;50.892;3.992;2023-07-02T04:45:29;54.83;;;20.60;;
21591;SDS011;10958;50.892;3.992;2023-07-02T04:47:57;45.25;;;21.20;;
21591;SDS011;10958;50.892;3.992;2023-07-02T04:50:22;46.88;;;21.23;;
21591;SDS011;10958;50.892;3.992;2023-07-02T04:52:48;42.30;;;20.65;;
21591;SDS011;10958;50.892;3.992;2023-07-02T04:55:14;42.70;;;20.63;;
21591;SDS011;10958;50.892;3.992;2023-07-02T04:57:40;49.20;;;20.52;;
21591;SDS011;10958;50.892;3.992;2023-07-02T05:00:09;43.35;;;21.20;;
21591;SDS011;10958;50.892;3.992;2023-07-02T05:02:35;44.75;;;20.85;;
21591;SDS011;10958;50.892;3.992;2023-07-02T05:05:02;47.83;;;19.63;;
21591;SDS011;10958;50.892;3.992;2023-07-02T05:07:28;47.80;;;20.52;;
21591;SDS011;10958;50.892;3.992;2023-07-02T05:09:54;44.20;;;20.75;;
21591;SDS011;10958;50.892;3.992;2023-07-02T05:12:20;46.47;;;20.83;;
21591;SDS011;10958;50.892;3.992;2023-07-02T05:14:45;47.72;;;20.75;;
21591;SDS011;10958;50.892;3.992;2023-07-02T05:17:11;43.10;;;20.42;;
21591;SDS011;10958;50.892;3.992;2023-07-02T05:19:39;45.78;;;20.15;;
21591;SDS011;10958;50.892;3.992;2023-07-02T05:22:06;48.65;;;21.15;;
21591;SDS011;10958;50.892;3.992;2023-07-02T05:24:32;44.72;;;20.52;;
21591;SDS011;10958;50.892;3.992;2023-07-02T05:26:58;40.00;;;21.05;;
21591;SDS011;10958;50.892;3.992;2023-07-02T05:29:24;39.90;;;19.30;;
21591;SDS011;10958;50.892;3.992;2023-07-02T05:31:49;45.65;;;20.60;;
21591;SDS011;10958;50.892;3.992;2023-07-02T05:34:15;42.28;;;20.55;;
21591;SDS011;10958;50.892;3.992;2023-07-02T05:36:41;39.45;;;19.02;;
21591;SDS011;10958;50.892;3.992;2023-07-02T05:39:07;46.05;;;20.70;;
21591;SDS011;10958;50.892;3.992;2023-07-02T05:41:35;43.47;;;20.13;;
21591;SDS011;10958;50.892;3.992;2023-07-02T05:44:00;44.85;;;20.48;;
21591;SDS011;10958;50.892;3.992;2023-07-02T05:46:27;43.08;;;20.35;;
21591;SDS011;10958;50.892;3.992;2023-07-02T05:48:52;43.92;;;20.85;;
21591;SDS011;10958;50.892;3.992;2023-07-02T05:51:21;51.53;;;20.10;;
21591;SDS011;10958;50.892;3.992;2023-07-02T05:53:47;39.72;;;18.52;;
21591;SDS011;10958;50.892;3.992;2023-07-02T05:56:13;41.22;;;20.25;;
21591;SDS011;10958;50.892;3.992;2023-07-02T05:58:38;46.55;;;19.60;;
21591;SDS011;10958;50.892;3.992;2023-07-02T06:01:04;39.42;;;18.77;;
21591;SDS011;10958;50.892;3.992;2023-07-02T06:03:31;39.45;;;17.65;;
21591;SDS011;10958;50.892;3.992;2023-07-02T06:05:56;38.83;;;17.92;;
21591;SDS011;10958;50.892;3.992;2023-07-02T06:08:22;41.38;;;16.67;;
21591;SDS011;10958;50.892;3.992;2023-07-02T06:10:48;34.78;;;17.50;;
21591;SDS011;10958;50.892;3.992;2023-07-02T06:13:16;38.33;;;17.43;;
21591;SDS011;10958;50.892;3.992;2023-07-02T06:15:42;33.45;;;17.35;;
21591;SDS011;10958;50.892;3.992;2023-07-02T06:18:09;38.97;;;16.95;;
21591;SDS011;10958;50.892;3.992;2023-07-02T06:20:35;32.47;;;16.75;;
21591;SDS011;10958;50.892;3.992;2023-07-02T06:23:00;34.63;;;16.17;;
21591;SDS011;10958;50.892;3.992;2023-07-02T06:25:26;33.72;;;15.85;;
21591;SDS011;10958;50.892;3.992;2023-07-02T06:27:52;29.92;;;14.60;;
21591;SDS011;10958;50.892;3.992;2023-07-02T06:30:23;37.33;;;14.95;;
21591;SDS011;10958;50.892;3.992;2023-07-02T06:32:53;32.30;;;15.50;;
21591;SDS011;10958;50.892;3.992;2023-07-02T06:35:19;32.03;;;15.27;;
21591;SDS011;10958;50.892;3.992;2023-07-02T06:37:45;28.70;;;13.20;;
21591;SDS011;10958;50.892;3.992;2023-07-02T06:40:12;29.80;;;13.88;;
21591;SDS011;10958;50.892;3.992;2023-07-02T06:42:38;28.30;;;13.40;;
21591;SDS011;10958;50.892;3.992;2023-07-02T06:45:04;27.35;;;12.85;;
21591;SDS011;10958;50.892;3.992;2023-07-02T06:47:31;36.55;;;14.27;;
21591;SDS011;10958;50.892;3.992;2023-07-02T06:49:57;30.88;;;13.52;;
21591;SDS011;10958;50.892;3.992;2023-07-02T06:52:25;27.25;;;14.00;;
21591;SDS011;10958;50.892;3.992;2023-07-02T06:54:51;26.65;;;12.90;;
21591;SDS011;10958;50.892;3.992;2023-07-02T06:57:17;28.27;;;13.40;;
21591;SDS011;10958;50.892;3.992;2023-07-02T06:59:43;26.10;;;13.13;;
21591;SDS011;10958;50.892;3.992;2023-07-02T07:02:14;29.88;;;12.77;;
21591;SDS011;10958;50.892;3.992;2023-07-02T07:04:39;24.42;;;12.52;;
21591;SDS011;10958;50.892;3.992;2023-07-02T07:07:05;26.98;;;12.50;;
21591;SDS011;10958;50.892;3.992;2023-07-02T07:09:31;23.10;;;11.68;;
21591;SDS011;10958;50.892;3.992;2023-07-02T07:11:59;25.60;;;10.65;;
21591;SDS011;10958;50.892;3.992;2023-07-02T07:14:25;20.55;;;10.43;;
21591;SDS011;10958;50.892;3.992;2023-07-02T07:16:51;25.50;;;10.38;;
21591;SDS011;10958;50.892;3.992;2023-07-02T07:19:19;21.23;;;9.82;;
21591;SDS011;10958;50.892;3.992;2023-07-02T07:21:45;29.20;;;11.27;;
21591;SDS011;10958;50.892;3.992;2023-07-02T07:24:16;26.38;;;11.38;;
21591;SDS011;10958;50.892;3.992;2023-07-02T07:26:45;24.95;;;11.02;;
21591;SDS011;10958;50.892;3.992;2023-07-02T07:29:11;20.55;;;9.90;;
21591;SDS011;10958;50.892;3.992;2023-07-02T07:31:37;18.73;;;9.93;;
21591;SDS011;10958;50.892;3.992;2023-07-02T07:34:03;21.73;;;10.30;;
21591;SDS011;10958;50.892;3.992;2023-07-02T07:36:32;21.50;;;10.10;;
21591;SDS011;10958;50.892;3.992;2023-07-02T07:38:58;27.90;;;11.30;;
21591;SDS011;10958;50.892;3.992;2023-07-02T07:41:23;25.23;;;10.48;;
21591;SDS011;10958;50.892;3.992;2023-07-02T07:43:52;28.08;;;11.07;;
21591;SDS011;10958;50.892;3.992;2023-07-02T07:46:17;25.58;;;10.48;;
21591;SDS011;10958;50.892;3.992;2023-07-02T07:48:44;21.08;;;10.43;;
21591;SDS011;10958;50.892;3.992;2023-07-02T07:51:10;20.95;;;9.30;;
21591;SDS011;10958;50.892;3.992;2023-07-02T07:53:39;23.23;;;9.98;;
21591;SDS011;10958;50.892;3.992;2023-07-02T07:56:05;21.10;;;9.98;;
21591;SDS011;10958;50.892;3.992;2023-07-02T07:58:31;23.67;;;9.50;;
21591;SDS011;10958;50.892;3.992;2023-07-02T08:00:58;19.27;;;9.10;;
21591;SDS011;10958;50.892;3.992;2023-07-02T08:03:23;22.55;;;9.40;;
21591;SDS011;10958;50.892;3.992;2023-07-02T08:05:52;24.48;;;10.43;;
21591;SDS011;10958;50.892;3.992;2023-07-02T08:08:23;20.52;;;9.82;;
21591;SDS011;10958;50.892;3.992;2023-07-02T08:10:49;21.30;;;10.10;;
21591;SDS011;10958;50.892;3.992;2023-07-02T08:13:15;25.10;;;10.85;;
21591;SDS011;10958;50.892;3.992;2023-07-02T08:15:43;18.08;;;9.45;;
21591;SDS011;10958;50.892;3.992;2023-07-02T08:18:13;27.00;;;10.75;;
21591;SDS011;10958;50.892;3.992;2023-07-02T08:20:39;19.75;;;9.40;;
21591;SDS011;10958;50.892;3.992;2023-07-02T08:23:05;19.67;;;9.25;;
21591;SDS011;10958;50.892;3.992;2023-07-02T08:25:33;22.77;;;9.77;;
21591;SDS011;10958;50.892;3.992;2023-07-02T08:28:01;23.02;;;9.82;;
21591;SDS011;10958;50.892;3.992;2023-07-02T08:30:27;19.65;;;9.90;;
21591;SDS011;10958;50.892;3.992;2023-07-02T08:32:53;21.83;;;10.70;;
21591;SDS011;10958;50.892;3.992;2023-07-02T08:35:22;25.95;;;10.80;;
21591;SDS011;10958;50.892;3.992;2023-07-02T08:37:48;24.38;;;11.02;;
21591;SDS011;10958;50.892;3.992;2023-07-02T08:40:15;24.52;;;10.82;;
21591;SDS011;10958;50.892;3.992;2023-07-02T08:42:43;28.00;;;11.27;;
21591;SDS011;10958;50.892;3.992;2023-07-02T08:45:13;27.48;;;11.32;;
21591;SDS011;10958;50.892;3.992;2023-07-02T08:47:45;22.30;;;10.90;;
21591;SDS011;10958;50.892;3.992;2023-07-02T08:52:38;23.15;;;10.23;;
21591;SDS011;10958;50.892;3.992;2023-07-02T08:55:06;22.65;;;10.00;;
21591;SDS011;10958;50.892;3.992;2023-07-02T08:57:34;23.08;;;10.60;;
21591;SDS011;10958;50.892;3.992;2023-07-02T09:00:03;22.73;;;11.65;;
21591;SDS011;10958;50.892;3.992;2023-07-02T09:02:36;20.13;;;10.40;;
21591;SDS011;10958;50.892;3.992;2023-07-02T09:05:02;23.63;;;11.27;;
21591;SDS011;10958;50.892;3.992;2023-07-02T09:07:29;23.95;;;11.13;;
21591;SDS011;10958;50.892;3.992;2023-07-02T09:09:57;23.25;;;10.73;;
21591;SDS011;10958;50.892;3.992;2023-07-02T09:14:56;23.98;;;10.85;;
21591;SDS011;10958;50.892;3.992;2023-07-02T09:17:26;23.83;;;10.68;;
21591;SDS011;10958;50.892;3.992;2023-07-02T09:19:57;24.73;;;10.43;;
21591;SDS011;10958;50.892;3.992;2023-07-02T09:22:25;25.15;;;10.43;;
21591;SDS011;10958;50.892;3.992;2023-07-02T09:24:55;23.27;;;10.02;;
21591;SDS011;10958;50.892;3.992;2023-07-02T09:27:32;25.65;;;10.32;;
21591;SDS011;10958;50.892;3.992;2023-07-02T09:30:06;24.52;;;9.80;;
21591;SDS011;10958;50.892;3.992;2023-07-02T09:32:32;20.85;;;9.13;;
21591;SDS011;10958;50.892;3.992;2023-07-02T09:35:00;22.70;;;10.35;;
21591;SDS011;10958;50.892;3.992;2023-07-02T09:37:27;20.65;;;9.90;;
21591;SDS011;10958;50.892;3.992;2023-07-02T09:39:53;24.05;;;10.43;;
21591;SDS011;10958;50.892;3.992;2023-07-02T09:42:24;23.40;;;10.25;;
21591;SDS011;10958;50.892;3.992;2023-07-02T09:44:52;22.73;;;10.55;;
21591;SDS011;10958;50.892;3.992;2023-07-02T09:47:20;21.42;;;9.77;;
21591;SDS011;10958;50.892;3.992;2023-07-02T09:49:54;23.77;;;10.30;;
21591;SDS011;10958;50.892;3.992;2023-07-02T09:52:24;19.38;;;9.90;;
21591;SDS011;10958;50.892;3.992;2023-07-02T09:54:54;22.23;;;10.38;;
21591;SDS011;10958;50.892;3.992;2023-07-02T09:57:22;22.23;;;9.63;;
21591;SDS011;10958;50.892;3.992;2023-07-02T09:59:48;17.92;;;9.00;;
21591;SDS011;10958;50.892;3.992;2023-07-02T10:03:33;21.40;;;10.32;;
21591;SDS011;10958;50.892;3.992;2023-07-02T10:06:06;22.35;;;10.00;;
21591;SDS011;10958;50.892;3.992;2023-07-02T10:08:32;22.38;;;9.95;;
21591;SDS011;10958;50.892;3.992;2023-07-02T10:11:11;21.08;;;10.27;;
21591;SDS011;10958;50.892;3.992;2023-07-02T10:13:40;19.75;;;10.32;;
21591;SDS011;10958;50.892;3.992;2023-07-02T10:16:06;18.98;;;9.63;;
21591;SDS011;10958;50.892;3.992;2023-07-02T10:18:35;18.30;;;9.30;;
21591;SDS011;10958;50.892;3.992;2023-07-02T10:21:14;22.08;;;10.40;;
21591;SDS011;10958;50.892;3.992;2023-07-02T10:23:40;23.60;;;9.77;;
21591;SDS011;10958;50.892;3.992;2023-07-02T10:28:57;25.23;;;10.88;;
21591;SDS011;10958;50.892;3.992;2023-07-02T10:31:24;21.42;;;9.30;;
21591;SDS011;10958;50.892;3.992;2023-07-02T10:33:49;18.58;;;9.95;;
21591;SDS011;10958;50.892;3.992;2023-07-02T10:36:19;22.80;;;9.68;;
21591;SDS011;10958;50.892;3.992;2023-07-02T10:38:47;20.70;;;10.35;;
21591;SDS011;10958;50.892;3.992;2023-07-02T10:41:22;17.42;;;9.57;;
21591;SDS011;10958;50.892;3.992;2023-07-02T10:44:30;23.27;;;10.55;;
21591;SDS011;10958;50.892;3.992;2023-07-02T10:46:49;19.30;;;9.65;;
21591;SDS011;10958;50.892;3.992;2023-07-02T10:49:16;20.30;;;10.15;;
21591;SDS011;10958;50.892;3.992;2023-07-02T10:51:44;20.38;;;10.20;;
21591;SDS011;10958;50.892;3.992;2023-07-02T10:54:10;25.48;;;10.07;;
21591;SDS011;10958;50.892;3.992;2023-07-02T10:56:38;24.60;;;9.73;;
21591;SDS011;10958;50.892;3.992;2023-07-02T10:59:08;21.70;;;9.43;;
21591;SDS011;10958;50.892;3.992;2023-07-02T11:01:34;19.88;;;9.30;;
21591;SDS011;10958;50.892;3.992;2023-07-02T11:04:01;21.20;;;9.70;;
21591;SDS011;10958;50.892;3.992;2023-07-02T11:06:29;22.42;;;10.13;;
21591;SDS011;10958;50.892;3.992;2023-07-02T11:09:00;22.67;;;9.45;;
21591;SDS011;10958;50.892;3.992;2023-07-02T11:11:26;20.77;;;9.30;;
21591;SDS011;10958;50.892;3.992;2023-07-02T11:13:52;22.25;;;8.75;;
21591;SDS011;10958;50.892;3.992;2023-07-02T11:18:45;21.95;;;9.93;;
21591;SDS011;10958;50.892;3.992;2023-07-02T11:21:11;18.27;;;9.38;;
21591;SDS011;10958;50.892;3.992;2023-07-02T11:23:37;21.95;;;8.80;;
21591;SDS011;10958;50.892;3.992;2023-07-02T11:26:03;17.48;;;8.52;;
21591;SDS011;10958;50.892;3.992;2023-07-02T11:28:30;20.15;;;9.02;;
21591;SDS011;10958;50.892;3.992;2023-07-02T11:30:57;17.25;;;8.25;;
21591;SDS011;10958;50.892;3.992;2023-07-02T11:33:36;16.17;;;8.25;;
21591;SDS011;10958;50.892;3.992;2023-07-02T11:36:02;17.15;;;8.98;;
21591;SDS011;10958;50.892;3.992;2023-07-02T11:38:31;21.00;;;8.75;;
21591;SDS011;10958;50.892;3.992;2023-07-02T11:40:57;16.95;;;8.60;;
21591;SDS011;10958;50.892;3.992;2023-07-02T11:43:24;14.82;;;7.82;;
21591;SDS011;10958;50.892;3.992;2023-07-02T11:45:53;17.38;;;8.52;;
21591;SDS011;10958;50.892;3.992;2023-07-02T11:48:19;17.42;;;7.78;;
21591;SDS011;10958;50.892;3.992;2023-07-02T11:50:44;21.10;;;8.43;;
21591;SDS011;10958;50.892;3.992;2023-07-02T11:53:10;14.50;;;7.13;;
21591;SDS011;10958;50.892;3.992;2023-07-02T11:55:38;16.38;;;7.47;;
21591;SDS011;10958;50.892;3.992;2023-07-02T11:58:04;17.88;;;7.60;;
21591;SDS011;10958;50.892;3.992;2023-07-02T12:00:32;20.77;;;8.25;;
21591;SDS011;10958;50.892;3.992;2023-07-02T12:02:58;16.75;;;7.93;;
21591;SDS011;10958;50.892;3.992;2023-07-02T12:05:25;21.83;;;8.20;;
21591;SDS011;10958;50.892;3.992;2023-07-02T12:07:53;14.70;;;7.32;;
21591;SDS011;10958;50.892;3.992;2023-07-02T12:10:19;15.98;;;7.00;;
21591;SDS011;10958;50.892;3.992;2023-07-02T12:12:45;15.45;;;7.18;;
21591;SDS011;10958;50.892;3.992;2023-07-02T12:15:11;15.57;;;7.53;;
21591;SDS011;10958;50.892;3.992;2023-07-02T12:17:36;17.00;;;7.50;;
21591;SDS011;10958;50.892;3.992;2023-07-02T12:20:04;22.75;;;7.95;;
21591;SDS011;10958;50.892;3.992;2023-07-02T12:22:30;15.23;;;7.55;;
21591;SDS011;10958;50.892;3.992;2023-07-02T12:24:58;16.85;;;7.28;;
21591;SDS011;10958;50.892;3.992;2023-07-02T12:27:24;14.55;;;7.15;;
21591;SDS011;10958;50.892;3.992;2023-07-02T12:29:52;17.10;;;7.82;;
21591;SDS011;10958;50.892;3.992;2023-07-02T12:32:18;16.50;;;7.57;;
21591;SDS011;10958;50.892;3.992;2023-07-02T12:34:45;14.97;;;7.47;;
21591;SDS011;10958;50.892;3.992;2023-07-02T12:37:15;16.48;;;6.90;;
21591;SDS011;10958;50.892;3.992;2023-07-02T12:39:42;15.88;;;7.10;;
21591;SDS011;10958;50.892;3.992;2023-07-02T12:42:08;18.90;;;7.30;;
21591;SDS011;10958;50.892;3.992;2023-07-02T12:44:35;16.13;;;7.30;;
21591;SDS011;10958;50.892;3.992;2023-07-02T12:47:01;14.55;;;7.63;;
21591;SDS011;10958;50.892;3.992;2023-07-02T12:49:27;16.30;;;7.50;;
21591;SDS011;10958;50.892;3.992;2023-07-02T12:51:53;15.63;;;6.80;;
21591;SDS011;10958;50.892;3.992;2023-07-02T12:54:18;16.02;;;6.82;;
21591;SDS011;10958;50.892;3.992;2023-07-02T12:56:44;13.65;;;7.10;;
21591;SDS011;10958;50.892;3.992;2023-07-02T12:59:10;15.93;;;7.57;;
21591;SDS011;10958;50.892;3.992;2023-07-02T13:01:35;18.00;;;7.60;;
21591;SDS011;10958;50.892;3.992;2023-07-02T13:04:01;18.10;;;7.60;;
21591;SDS011;10958;50.892;3.992;2023-07-02T13:06:28;16.85;;;6.80;;
21591;SDS011;10958;50.892;3.992;2023-07-02T13:08:54;15.77;;;6.78;;
21591;SDS011;10958;50.892;3.992;2023-07-02T13:11:23;18.20;;;7.10;;
21591;SDS011;10958;50.892;3.992;2023-07-02T13:13:49;14.38;;;6.35;;
21591;SDS011;10958;50.892;3.992;2023-07-02T13:16:14;17.25;;;7.30;;
21591;SDS011;10958;50.892;3.992;2023-07-02T13:18:40;16.48;;;7.03;;
21591;SDS011;10958;50.892;3.992;2023-07-02T13:21:06;15.90;;;6.85;;
21591;SDS011;10958;50.892;3.992;2023-07-02T13:23:32;14.88;;;7.10;;
21591;SDS011;10958;50.892;3.992;2023-07-02T13:25:57;16.25;;;6.60;;
21591;SDS011;10958;50.892;3.992;2023-07-02T13:28:23;13.93;;;6.85;;
21591;SDS011;10958;50.892;3.992;2023-07-02T13:30:53;14.45;;;6.75;;
21591;SDS011;10958;50.892;3.992;2023-07-02T13:33:21;16.25;;;6.75;;
21591;SDS011;10958;50.892;3.992;2023-07-02T13:35:47;15.38;;;6.63;;
21591;SDS011;10958;50.892;3.992;2023-07-02T13:38:12;17.15;;;7.15;;
21591;SDS011;10958;50.892;3.992;2023-07-02T13:40:38;13.68;;;6.45;;
21591;SDS011;10958;50.892;3.992;2023-07-02T13:43:04;11.48;;;6.82;;
21591;SDS011;10958;50.892;3.992;2023-07-02T13:45:32;14.18;;;6.57;;
21591;SDS011;10958;50.892;3.992;2023-07-02T13:47:58;12.88;;;6.85;;
21591;SDS011;10958;50.892;3.992;2023-07-02T13:50:23;16.13;;;6.57;;
21591;SDS011;10958;50.892;3.992;2023-07-02T13:52:52;16.40;;;5.97;;
21591;SDS011;10958;50.892;3.992;2023-07-02T13:57:45;13.20;;;5.75;;
21591;SDS011;10958;50.892;3.992;2023-07-02T14:00:12;15.10;;;6.32;;
21591;SDS011;10958;50.892;3.992;2023-07-02T14:02:37;14.23;;;6.57;;
21591;SDS011;10958;50.892;3.992;2023-07-02T14:05:03;17.20;;;5.97;;
21591;SDS011;10958;50.892;3.992;2023-07-02T14:07:29;12.75;;;5.90;;
21591;SDS011;10958;50.892;3.992;2023-07-02T14:09:57;13.15;;;6.25;;
21591;SDS011;10958;50.892;3.992;2023-07-02T14:12:23;14.48;;;5.60;;
21591;SDS011;10958;50.892;3.992;2023-07-02T14:14:51;13.50;;;5.90;;
21591;SDS011;10958;50.892;3.992;2023-07-02T14:17:20;14.95;;;6.45;;
21591;SDS011;10958;50.892;3.992;2023-07-02T14:19:45;17.33;;;6.30;;
21591;SDS011;10958;50.892;3.992;2023-07-02T14:22:11;9.23;;;5.15;;
21591;SDS011;10958;50.892;3.992;2023-07-02T14:24:37;11.65;;;5.97;;
21591;SDS011;10958;50.892;3.992;2023-07-02T14:27:06;14.05;;;6.10;;
21591;SDS011;10958;50.892;3.992;2023-07-02T14:29:31;13.25;;;5.70;;
21591;SDS011;10958;50.892;3.992;2023-07-02T14:31:57;12.93;;;5.55;;
21591;SDS011;10958;50.892;3.992;2023-07-02T14:34:23;15.23;;;6.28;;
21591;SDS011;10958;50.892;3.992;2023-07-02T14:36:49;11.82;;;5.80;;
21591;SDS011;10958;50.892;3.992;2023-07-02T14:39:14;13.70;;;6.03;;
21591;SDS011;10958;50.892;3.992;2023-07-02T14:41:40;15.57;;;6.10;;